createdAt,value
2023-03-31T00:02:13.404Z,84.10
2023-03-31T00:05:58.232Z,84.00
2023-03-31T00:09:41.977Z,84.20
2023-03-31T00:13:23.692Z,84.10
2023-03-31T00:17:05.523Z,84.20
2023-03-31T00:20:47.324Z,84.30
2023-03-31T00:24:33.009Z,84.60
2023-03-31T00:28:14.786Z,84.70
2023-03-31T00:31:56.581Z,84.40
2023-03-31T00:35:39.237Z,84.30
2023-03-31T00:39:20.981Z,84.70
2023-03-31T00:43:03.383Z,84.30
2023-03-31T00:47:13.028Z,84.20
2023-03-31T00:50:57.881Z,84.60
2023-03-31T00:54:42.244Z,84.50
2023-03-31T00:58:28.277Z,84.00
2023-03-31T01:02:13.071Z,84.50
2023-03-31T01:06:06.125Z,84.20
2023-03-31T01:09:48.683Z,84.10
2023-03-31T01:13:32.048Z,84.30
2023-03-31T01:17:19.377Z,84.40
2023-03-31T01:21:19.945Z,84.20
2023-03-31T01:25:10.665Z,84.30
2023-03-31T01:29:00.551Z,84.30
2023-03-31T01:33:04.236Z,84.20
2023-03-31T01:37:14.779Z,84.30
2023-03-31T01:41:27.460Z,84.20
2023-03-31T01:45:12.558Z,84.10
2023-03-31T01:49:25.497Z,84.00
2023-03-31T01:53:16.176Z,84.10
2023-03-31T01:57:07.310Z,84.10
2023-03-31T02:00:58.188Z,83.90
2023-03-31T02:04:46.525Z,84.00
2023-03-31T02:08:37.479Z,83.90
2023-03-31T02:12:21.931Z,84.00
2023-03-31T02:16:10.026Z,83.90
2023-03-31T02:19:53.690Z,84.00
2023-03-31T02:23:38.380Z,84.10
2023-03-31T02:27:31.358Z,84.10
2023-03-31T02:31:22.500Z,84.40
2023-03-31T02:35:06.283Z,84.40
2023-03-31T02:38:59.382Z,84.60
2023-03-31T02:42:41.929Z,84.50
2023-03-31T02:46:24.148Z,84.60
2023-03-31T02:50:07.106Z,84.40
2023-03-31T02:54:08.569Z,84.50
2023-03-31T02:57:53.060Z,85.00
2023-03-31T03:01:43.794Z,84.60
2023-03-31T03:05:38.176Z,84.80
2023-03-31T03:09:38.079Z,84.80
2023-03-31T03:13:39.888Z,84.70
2023-03-31T03:17:27.242Z,85.20
2023-03-31T03:21:08.950Z,84.70
2023-03-31T03:24:52.236Z,84.80
2023-03-31T03:28:33.928Z,84.70
2023-03-31T03:32:15.705Z,84.80
2023-03-31T03:35:57.395Z,85.00
2023-03-31T03:39:39.151Z,85.00
2023-03-31T03:43:20.924Z,85.00
2023-03-31T03:47:02.675Z,84.90
2023-03-31T03:50:46.385Z,84.90
2023-03-31T03:54:28.225Z,84.90
2023-03-31T03:58:10.192Z,85.00
2023-03-31T04:01:52.759Z,85.20
2023-03-31T04:05:34.561Z,85.00
2023-03-31T04:09:16.301Z,84.90
2023-03-31T04:12:58.211Z,85.00
2023-03-31T04:16:40.654Z,84.90
2023-03-31T04:20:22.487Z,85.00
2023-03-31T04:24:04.750Z,85.00
2023-03-31T04:27:54.596Z,85.00
2023-03-31T04:31:38.773Z,84.90
2023-03-31T04:35:22.155Z,85.00
2023-03-31T04:39:03.992Z,84.80
2023-03-31T04:42:45.782Z,84.90
2023-03-31T04:46:27.974Z,84.90
2023-03-31T04:50:14.539Z,84.90
2023-03-31T04:53:57.996Z,85.00
2023-03-31T04:57:39.710Z,85.00
2023-03-31T05:01:21.635Z,85.10
2023-03-31T05:05:04.539Z,84.90
2023-03-31T05:08:46.340Z,85.00
2023-03-31T05:12:28.162Z,85.00
2023-03-31T05:16:14.492Z,85.10
2023-03-31T05:19:56.401Z,85.10
2023-03-31T05:23:38.290Z,85.00
2023-03-31T05:27:21.897Z,85.10
2023-03-31T05:31:05.195Z,85.00
2023-03-31T05:34:46.925Z,85.00
2023-03-31T05:38:29.270Z,85.30
2023-03-31T05:42:10.981Z,85.10
2023-03-31T05:45:52.824Z,85.20
2023-03-31T05:49:34.761Z,85.10
2023-03-31T05:53:16.655Z,85.20
2023-03-31T05:56:58.488Z,85.30
2023-03-31T06:00:40.213Z,85.40
2023-03-31T06:04:22.030Z,85.40
2023-03-31T06:08:04.325Z,85.40
2023-03-31T06:11:47.612Z,85.30
2023-03-31T06:15:31.555Z,85.40
2023-03-31T06:19:13.356Z,85.40
2023-03-31T06:22:55.156Z,85.30
2023-03-31T06:26:36.927Z,85.30
2023-03-31T06:30:18.915Z,85.60
2023-03-31T06:34:00.813Z,85.30
2023-03-31T06:37:42.562Z,85.40
2023-03-31T06:41:24.296Z,85.60
2023-03-31T06:45:06.441Z,85.50
2023-03-31T06:48:48.229Z,85.50
2023-03-31T06:52:30.978Z,85.50
2023-03-31T06:56:12.788Z,85.60
2023-03-31T06:59:54.661Z,85.60
2023-03-31T07:03:36.868Z,85.70
2023-03-31T07:07:18.637Z,85.70
2023-03-31T07:11:01.693Z,85.60
2023-03-31T07:14:43.445Z,85.80
2023-03-31T07:18:34.304Z,85.80
2023-03-31T07:22:16.757Z,85.70
2023-03-31T07:26:02.480Z,85.70
2023-03-31T07:29:44.240Z,85.80
2023-03-31T07:33:26.140Z,85.90
2023-03-31T07:37:07.861Z,86.00
2023-03-31T07:41:01.880Z,86.10
2023-03-31T07:44:49.884Z,86.00
2023-03-31T07:48:31.581Z,85.90
2023-03-31T07:52:13.459Z,85.90
2023-03-31T07:55:55.640Z,86.10
2023-03-31T07:59:37.363Z,86.10
2023-03-31T08:03:19.223Z,86.10
2023-03-31T08:07:00.956Z,86.10
2023-03-31T08:10:42.717Z,86.40
2023-03-31T08:14:38.035Z,86.20
2023-03-31T08:18:22.175Z,86.30
2023-03-31T08:22:04.023Z,86.30
2023-03-31T08:25:45.750Z,86.30
2023-03-31T08:29:27.511Z,86.30
2023-03-31T08:33:09.643Z,86.40
2023-03-31T08:36:51.438Z,86.30
2023-03-31T08:40:33.754Z,86.30
2023-03-31T08:44:18.154Z,86.40
2023-03-31T08:48:05.314Z,86.30
2023-03-31T08:51:59.706Z,86.20
2023-03-31T08:55:49.294Z,86.00
2023-03-31T08:59:33.870Z,85.70
2023-03-31T09:03:39.660Z,85.60
2023-03-31T09:07:39.157Z,85.50
2023-03-31T09:11:40.634Z,85.50
2023-03-31T09:15:50.168Z,85.50
2023-03-31T09:19:56.317Z,85.40
2023-03-31T09:24:13.173Z,85.30
2023-03-31T09:27:58.192Z,85.40
2023-03-31T09:31:43.340Z,85.40
2023-03-31T09:35:26.856Z,85.50
2023-03-31T09:39:13.811Z,85.40
2023-03-31T09:43:06.350Z,85.20
2023-03-31T09:46:48.500Z,85.30
2023-03-31T09:50:43.315Z,85.20
2023-03-31T09:54:38.649Z,85.20
2023-03-31T09:58:22.119Z,85.30
2023-03-31T10:02:21.102Z,85.20
2023-03-31T10:06:09.684Z,85.00
2023-03-31T10:09:54.241Z,84.90
2023-03-31T10:13:47.629Z,85.00
2023-03-31T10:17:29.487Z,84.80
2023-03-31T10:21:27.051Z,85.10
2023-03-31T10:25:27.684Z,85.10
2023-03-31T10:29:16.435Z,84.90
2023-03-31T10:33:03.425Z,85.10
2023-03-31T10:36:52.137Z,85.00
2023-03-31T10:40:36.332Z,85.10
2023-03-31T10:44:38.679Z,85.20
2023-03-31T10:48:27.899Z,85.50
2023-03-31T10:52:42.973Z,85.40
2023-03-31T10:56:53.935Z,85.60
2023-03-31T11:00:39.077Z,85.60
2023-03-31T11:04:23.853Z,85.60
2023-03-31T11:08:11.673Z,85.60
2023-03-31T11:11:58.698Z,85.60
2023-03-31T11:15:55.805Z,85.70
2023-03-31T11:19:51.069Z,85.80
2023-03-31T11:23:55.333Z,86.00
2023-03-31T11:28:00.471Z,86.00
2023-03-31T11:31:53.711Z,85.90
2023-03-31T11:35:44.243Z,85.70
2023-03-31T11:39:29.056Z,85.40
2023-03-31T11:43:16.582Z,85.50
2023-03-31T11:47:03.306Z,85.50
2023-03-31T11:50:47.230Z,85.70
2023-03-31T11:54:38.141Z,86.00
2023-03-31T11:58:33.437Z,85.90
2023-03-31T12:02:41.874Z,85.80
2023-03-31T12:06:31.740Z,85.90
2023-03-31T12:10:32.103Z,85.90
2023-03-31T12:14:22.682Z,86.30
2023-03-31T12:18:13.431Z,86.10
2023-03-31T12:22:18.751Z,86.40
2023-03-31T12:26:13.788Z,86.40
2023-03-31T12:30:02.342Z,86.30
2023-03-31T12:33:47.412Z,86.30
2023-03-31T12:37:35.397Z,86.10
2023-03-31T12:41:18.162Z,85.90
2023-03-31T12:45:31.200Z,86.10
2023-03-31T12:49:32.363Z,86.00
2023-03-31T12:53:32.934Z,86.30
2023-03-31T12:57:25.676Z,86.50
2023-03-31T13:01:25.642Z,86.30
2023-03-31T13:05:37.222Z,86.20
2023-03-31T13:09:18.890Z,86.40
2023-03-31T13:13:06.968Z,86.40
2023-03-31T13:16:49.970Z,86.40
2023-03-31T13:20:42.171Z,86.40
2023-03-31T13:24:28.380Z,86.50
2023-03-31T13:28:25.601Z,86.60
2023-03-31T13:32:21.151Z,86.40
2023-03-31T13:36:30.016Z,86.10
2023-03-31T13:40:30.810Z,86.20
2023-03-31T13:44:38.507Z,86.30
2023-03-31T13:48:28.929Z,86.20
2023-03-31T13:52:12.591Z,86.10
2023-03-31T13:55:57.048Z,86.30
2023-03-31T13:59:55.701Z,86.40
2023-03-31T14:04:01.012Z,86.20
2023-03-31T14:08:19.962Z,86.30
2023-03-31T14:12:19.090Z,85.90
2023-03-31T14:16:02.314Z,86.00
2023-03-31T14:20:10.931Z,86.00
2023-03-31T14:24:02.569Z,85.90
2023-03-31T14:28:16.878Z,86.10
2023-03-31T14:32:18.920Z,86.20
2023-03-31T14:36:16.443Z,86.40
2023-03-31T14:39:59.159Z,86.20
2023-03-31T14:43:51.077Z,86.10
2023-03-31T14:47:33.064Z,86.20
2023-03-31T14:51:17.292Z,86.30
2023-03-31T14:54:59.936Z,86.40
2023-03-31T14:58:47.293Z,86.20
2023-03-31T15:02:37.312Z,85.70
2023-03-31T15:06:19.160Z,85.70
2023-03-31T15:10:01.859Z,85.50
2023-03-31T15:14:03.680Z,85.50
2023-03-31T15:17:47.970Z,85.70
2023-03-31T15:21:36.513Z,85.60
2023-03-31T15:25:18.888Z,85.90
2023-03-31T15:29:17.584Z,85.90
2023-03-31T15:33:11.712Z,85.70
2023-03-31T15:37:01.071Z,85.80
2023-03-31T15:40:43.994Z,85.70
2023-03-31T15:44:48.086Z,85.90
2023-03-31T15:48:37.876Z,85.90
2023-03-31T15:52:28.545Z,86.10
2023-03-31T15:56:40.573Z,85.90
2023-03-31T16:00:34.544Z,85.80
2023-03-31T16:04:17.350Z,85.80
2023-03-31T16:07:59.896Z,85.70
2023-03-31T16:11:47.274Z,85.90
2023-03-31T16:15:36.557Z,85.90
2023-03-31T16:19:20.963Z,86.00
2023-03-31T16:23:12.089Z,86.00
2023-03-31T16:27:09.421Z,86.10
2023-03-31T16:30:51.491Z,86.00
2023-03-31T16:34:33.249Z,86.00
2023-03-31T16:38:16.646Z,86.00
2023-03-31T16:41:58.334Z,86.00
2023-03-31T16:45:41.613Z,86.00
2023-03-31T16:49:23.326Z,86.00
2023-03-31T16:53:05.037Z,86.10
2023-03-31T16:56:47.937Z,86.10
2023-03-31T17:00:36.111Z,86.00
2023-03-31T17:04:18.270Z,86.00
2023-03-31T17:08:00.689Z,86.10
2023-03-31T17:11:42.491Z,86.10
2023-03-31T17:15:24.657Z,86.10
2023-03-31T17:19:06.563Z,86.10
2023-03-31T17:22:48.506Z,86.20
2023-03-31T17:26:30.270Z,86.20
2023-03-31T17:30:12.531Z,86.20
2023-03-31T17:33:54.443Z,86.20
2023-03-31T17:37:37.338Z,86.10
2023-03-31T17:41:19.182Z,86.20
2023-03-31T17:45:01.218Z,86.20
2023-03-31T17:48:43.658Z,86.30
2023-03-31T17:52:25.415Z,86.30
2023-03-31T17:56:07.244Z,86.20
2023-03-31T17:59:49.613Z,86.20
2023-03-31T18:03:31.736Z,86.20
2023-03-31T18:07:13.553Z,86.20
2023-03-31T18:10:55.266Z,86.20
2023-03-31T18:14:37.003Z,86.10
2023-03-31T18:18:19.529Z,86.10
2023-03-31T18:22:01.290Z,86.10
2023-03-31T18:25:46.701Z,86.00
2023-03-31T18:29:28.519Z,86.10
2023-03-31T18:33:11.710Z,86.10
2023-03-31T18:36:54.088Z,86.20
2023-03-31T18:40:36.565Z,86.20
2023-03-31T18:44:18.251Z,86.30
2023-03-31T18:48:00.264Z,86.30
2023-03-31T18:51:42.032Z,86.30
2023-03-31T18:55:24.152Z,86.30
2023-03-31T18:59:05.847Z,86.30
2023-03-31T19:02:47.756Z,86.30
2023-03-31T19:06:29.555Z,86.40
2023-03-31T19:10:11.415Z,86.40
2023-03-31T19:13:55.403Z,86.40
2023-03-31T19:17:37.173Z,86.40
2023-03-31T19:21:19.686Z,86.40
2023-03-31T19:25:01.714Z,86.40
2023-03-31T19:28:43.512Z,86.40
2023-03-31T19:32:25.542Z,86.30
2023-03-31T19:36:08.192Z,86.30
2023-03-31T19:39:50.061Z,86.30
2023-03-31T19:43:32.465Z,86.30
2023-03-31T19:47:14.244Z,86.30
2023-03-31T19:51:00.134Z,86.40
2023-03-31T19:54:42.100Z,86.40
2023-03-31T19:58:24.550Z,86.40
2023-03-31T20:02:06.800Z,86.20
2023-03-31T20:05:49.189Z,86.30
2023-03-31T20:09:31.049Z,86.30
2023-03-31T20:13:12.774Z,86.30
2023-03-31T20:16:54.675Z,86.20
2023-03-31T20:20:36.484Z,86.20
2023-03-31T20:24:19.307Z,86.20
2023-03-31T20:28:01.603Z,86.20
2023-03-31T20:31:43.595Z,86.20
2023-03-31T20:35:25.424Z,86.20
2023-03-31T20:39:07.758Z,86.20
2023-03-31T20:42:49.501Z,86.20
2023-03-31T20:46:31.749Z,86.20
2023-03-31T20:50:13.571Z,86.20
2023-03-31T20:53:57.426Z,86.10
2023-03-31T20:57:39.168Z,86.20
2023-03-31T21:01:22.096Z,86.10
2023-03-31T21:05:04.314Z,86.10
2023-03-31T21:08:51.609Z,86.10
2023-03-31T21:12:33.771Z,86.10
2023-03-31T21:16:16.339Z,86.10
2023-03-31T21:19:58.060Z,86.10
2023-03-31T21:23:41.146Z,86.10
2023-03-31T21:27:23.178Z,86.10
2023-03-31T21:31:17.964Z,86.20
2023-03-31T21:34:59.717Z,86.20
2023-03-31T21:38:42.073Z,86.20
2023-03-31T21:42:24.215Z,86.20
2023-03-31T21:46:07.078Z,86.20
2023-03-31T21:49:48.856Z,86.20
2023-03-31T21:53:31.521Z,86.30
2023-03-31T21:57:13.357Z,86.20
2023-03-31T22:01:00.218Z,86.30
2023-03-31T22:04:42.019Z,86.30
2023-03-31T22:08:24.565Z,86.30
2023-03-31T22:12:06.467Z,86.40
2023-03-31T22:15:48.670Z,86.30
2023-03-31T22:19:30.533Z,86.30
2023-03-31T22:23:12.382Z,86.30
2023-03-31T22:26:54.232Z,86.30
2023-03-31T22:30:36.969Z,86.40
2023-03-31T22:34:21.754Z,86.40
2023-03-31T22:38:04.463Z,86.40
2023-03-31T22:41:48.899Z,86.40
2023-03-31T22:45:31.029Z,86.40
2023-03-31T22:49:14.293Z,86.40
2023-03-31T22:52:56.036Z,86.40
2023-03-31T22:56:37.738Z,86.50
2023-03-31T23:00:19.623Z,86.50
2023-03-31T23:04:02.438Z,86.50
2023-03-31T23:07:44.750Z,86.40
2023-03-31T23:11:27.341Z,86.50
2023-03-31T23:15:09.437Z,86.50
2023-03-31T23:18:53.106Z,86.50
2023-03-31T23:22:35.004Z,86.50
2023-03-31T23:26:19.059Z,86.50
2023-03-31T23:30:01.321Z,86.40
2023-03-31T23:33:43.214Z,86.40
2023-03-31T23:37:25.001Z,86.40
2023-03-31T23:41:07.582Z,86.50
2023-03-31T23:44:49.293Z,86.40
2023-03-31T23:48:31.293Z,86.40
2023-03-31T23:52:14.115Z,86.40
2023-03-31T23:55:57.863Z,86.40
2023-03-31T23:59:39.568Z,86.40
